Time;durP1;ratioP1;P1;durP2;ratioP2;P2;SDS_P1;SDS_P2;PMS_P1;PMS_P2;Temp;Humidity;BMP_temperature;BMP_pressure;BME280_temperature;BME280_humidity;BME280_pressure;Samples;Min_cycle;Max_cycle;Signal;HPM_P1;HPM_P2
2022/10/27 00:00:36;;;;;;;0.00;0.00;;;;;;;;;;1740924;28;20644;-72
2022/10/27 00:01:28;;;;;;;0.00;0.00;;;;;;;;;;1739634;28;20203;-70
2022/10/27 00:02:19;;;;;;;0.00;0.00;;;;;;;;;;1740064;28;20696;-71
2022/10/27 00:03:11;;;;;;;0.00;0.00;;;;;;;;;;1742910;28;20226;-70
2022/10/27 00:04:03;;;;;;;0.00;0.00;;;;;;;;;;1746601;28;20209;-70
2022/10/27 00:04:54;;;;;;;0.00;0.00;;;;;;;;;;1747552;28;20229;-70
2022/10/27 00:05:47;;;;;;;0.00;0.00;;;;;;;;;;1747598;28;20224;-71
2022/10/27 00:06:38;;;;;;;0.00;0.00;;;;;;;;;;1747455;28;20238;-71
2022/10/27 00:07:30;;;;;;;0.00;0.00;;;;;;;;;;1745012;28;20217;-71
2022/10/27 00:08:22;;;;;;;0.00;0.00;;;;;;;;;;1740721;28;20257;-71
2022/10/27 00:09:14;;;;;;;0.00;0.00;;;;;;;;;;1742926;28;20199;-71
2022/10/27 00:10:05;;;;;;;0.00;0.00;;;;;;;;;;1747700;28;20202;-71
2022/10/27 00:10:57;;;;;;;0.00;0.00;;;;;;;;;;1747339;28;20213;-72
2022/10/27 00:11:49;;;;;;;0.00;0.00;;;;;;;;;;1747154;28;20206;-72
2022/10/27 00:12:41;;;;;;;0.00;0.00;;;;;;;;;;1746643;28;20226;-72
2022/10/27 00:13:32;;;;;;;0.00;0.00;;;;;;;;;;1747676;28;20305;-72
2022/10/27 00:14:24;;;;;;;0.00;0.00;;;;;;;;;;1744759;28;20240;-72
2022/10/27 00:15:15;;;;;;;0.00;0.00;;;;;;;;;;1740990;28;20231;-72
2022/10/27 00:16:11;;;;;;;0.00;0.00;;;;;;;;;;1740220;28;20203;-72
2022/10/27 00:17:02;;;;;;;0.00;0.00;;;;;;;;;;1740708;28;20249;-72
2022/10/27 00:17:54;;;;;;;0.00;0.00;;;;;;;;;;1740074;28;20202;-72
2022/10/27 00:18:46;;;;;;;0.00;0.00;;;;;;;;;;1740769;28;20234;-72
2022/10/27 00:19:38;;;;;;;0.00;0.00;;;;;;;;;;1744489;28;20293;-72
2022/10/27 00:20:29;;;;;;;0.00;0.00;;;;;;;;;;1747448;28;20289;-72
2022/10/27 00:21:21;;;;;;;0.00;0.00;;;;;;;;;;1747158;28;20233;-72
2022/10/27 00:22:12;;;;;;;0.00;0.00;;;;;;;;;;1747002;28;20202;-72
2022/10/27 00:23:04;;;;;;;0.00;0.00;;;;;;;;;;1745881;28;20575;-72
2022/10/27 00:23:55;;;;;;;0.00;0.00;;;;;;;;;;1739944;28;20302;-72
2022/10/27 00:24:47;;;;;;;0.00;0.00;;;;;;;;;;1746046;28;20616;-72
2022/10/27 00:25:39;;;;;;;0.00;0.00;;;;;;;;;;1747361;28;20690;-72
2022/10/27 00:26:31;;;;;;;0.00;0.00;;;;;;;;;;1743514;28;20210;-72
2022/10/27 00:27:22;;;;;;;0.00;0.00;;;;;;;;;;1747285;28;20237;-72
2022/10/27 00:28:14;;;;;;;0.00;0.00;;;;;;;;;;1747239;28;20198;-72
2022/10/27 00:29:05;;;;;;;0.00;0.00;;;;;;;;;;1747234;28;20297;-72
2022/10/27 00:29:57;;;;;;;0.00;0.00;;;;;;;;;;1741040;28;20291;-72
2022/10/27 00:30:48;;;;;;;0.00;0.00;;;;;;;;;;1736010;28;20241;-72
2022/10/27 00:31:41;;;;;;;0.00;0.00;;;;;;;;;;1740460;28;20211;-71
2022/10/27 00:32:32;;;;;;;0.00;0.00;;;;;;;;;;1739885;28;20514;-70
2022/10/27 00:33:24;;;;;;;0.00;0.00;;;;;;;;;;1740651;28;20261;-71
2022/10/27 00:34:16;;;;;;;0.00;0.00;;;;;;;;;;1740269;28;20249;-70
2022/10/27 00:35:08;;;;;;;0.00;0.00;;;;;;;;;;1740712;28;20198;-71
2022/10/27 00:36:02;;;;;;;0.00;0.00;;;;;;;;;;1743869;28;20987;-72
2022/10/27 00:36:54;;;;;;;0.00;0.00;;;;;;;;;;1747230;28;20229;-72
2022/10/27 00:37:45;;;;;;;0.00;0.00;;;;;;;;;;1747373;28;20285;-72
2022/10/27 00:38:38;;;;;;;0.00;0.00;;;;;;;;;;1747481;28;20711;-72
2022/10/27 00:39:29;;;;;;;0.00;0.00;;;;;;;;;;1747001;28;20356;-72
2022/10/27 00:40:21;;;;;;;0.00;0.00;;;;;;;;;;1747745;28;20221;-72
2022/10/27 00:41:23;;;;;;;0.00;0.00;;;;;;;;;;1746908;28;20281;-72
2022/10/27 00:42:14;;;;;;;0.00;0.00;;;;;;;;;;1747125;28;20908;-72
2022/10/27 00:43:21;;;;;;;0.00;0.00;;;;;;;;;;1747089;28;20198;-72
2022/10/27 00:44:29;;;;;;;0.00;0.00;;;;;;;;;;1746882;28;20230;-72
2022/10/27 00:45:21;;;;;;;0.00;0.00;;;;;;;;;;1747469;28;20218;-72
2022/10/27 00:46:19;;;;;;;0.00;0.00;;;;;;;;;;1747092;28;20242;-72
2022/10/27 00:47:16;;;;;;;0.00;0.00;;;;;;;;;;1746998;28;20289;-72
2022/10/27 00:48:08;;;;;;;0.00;0.00;;;;;;;;;;1747353;28;20216;-72
2022/10/27 00:49:01;;;;;;;0.00;0.00;;;;;;;;;;1747162;28;20248;-72
2022/10/27 00:49:56;;;;;;;0.00;0.00;;;;;;;;;;1740891;28;20213;-72
2022/10/27 00:50:47;;;;;;;0.00;0.00;;;;;;;;;;1741907;28;20317;-72
2022/10/27 00:51:41;;;;;;;0.00;0.00;;;;;;;;;;1747139;28;20198;-72
2022/10/27 00:52:34;;;;;;;0.00;0.00;;;;;;;;;;1746508;28;20210;-72
2022/10/27 00:53:26;;;;;;;0.00;0.00;;;;;;;;;;1747213;28;20206;-72
2022/10/27 00:54:18;;;;;;;0.00;0.00;;;;;;;;;;1743933;28;20326;-72
2022/10/27 00:55:12;;;;;;;0.00;0.00;;;;;;;;;;1740790;28;20540;-72
2022/10/27 00:56:03;;;;;;;0.00;0.00;;;;;;;;;;1739935;28;20294;-71
2022/10/27 00:56:55;;;;;;;0.00;0.00;;;;;;;;;;1740568;28;20490;-71
2022/10/27 00:57:49;;;;;;;0.00;0.00;;;;;;;;;;1739704;28;20221;-70
2022/10/27 00:58:40;;;;;;;0.00;0.00;;;;;;;;;;1740174;28;20321;-71
2022/10/27 00:59:32;;;;;;;0.00;0.00;;;;;;;;;;1740008;28;20305;-70
2022/10/27 01:00:23;;;;;;;0.00;0.00;;;;;;;;;;1740839;28;20203;-70
2022/10/27 01:01:16;;;;;;;0.00;0.00;;;;;;;;;;1740159;28;20198;-70
2022/10/27 01:02:09;;;;;;;0.00;0.00;;;;;;;;;;1739529;28;20757;-70
2022/10/27 01:03:03;;;;;;;0.00;0.00;;;;;;;;;;1745833;28;20666;-70
2022/10/27 01:03:54;;;;;;;0.00;0.00;;;;;;;;;;1746967;28;20244;-71
2022/10/27 01:04:48;;;;;;;0.00;0.00;;;;;;;;;;1747043;28;20209;-70
2022/10/27 01:05:39;;;;;;;0.00;0.00;;;;;;;;;;1747393;28;20687;-70
2022/10/27 01:06:33;;;;;;;0.00;0.00;;;;;;;;;;1746912;28;20543;-70
2022/10/27 01:07:25;;;;;;;0.00;0.00;;;;;;;;;;1745717;28;20733;-70
2022/10/27 01:08:17;;;;;;;0.00;0.00;;;;;;;;;;1739803;28;20245;-70
2022/10/27 01:09:08;;;;;;;0.00;0.00;;;;;;;;;;1740454;28;20345;-71
2022/10/27 01:10:03;;;;;;;0.00;0.00;;;;;;;;;;1747083;28;20698;-71
2022/10/27 01:10:54;;;;;;;0.00;0.00;;;;;;;;;;1745207;28;20203;-70
2022/10/27 01:11:46;;;;;;;0.00;0.00;;;;;;;;;;1747253;28;20293;-70
2022/10/27 01:12:37;;;;;;;0.00;0.00;;;;;;;;;;1746657;28;20385;-70
2022/10/27 01:13:29;;;;;;;0.00;0.00;;;;;;;;;;1747182;28;20288;-70
2022/10/27 01:14:20;;;;;;;0.00;0.00;;;;;;;;;;1746478;28;20352;-70
2022/10/27 01:15:12;;;;;;;0.00;0.00;;;;;;;;;;1747582;28;20198;-70
2022/10/27 01:16:08;;;;;;;0.00;0.00;;;;;;;;;;1747028;28;20241;-70
2022/10/27 01:17:04;;;;;;;0.00;0.00;;;;;;;;;;1747092;28;20230;-70
2022/10/27 01:17:58;;;;;;;0.00;0.00;;;;;;;;;;1746972;28;20601;-70
2022/10/27 01:18:56;;;;;;;0.00;0.00;;;;;;;;;;1747065;28;20225;-70
2022/10/27 01:20:21;;;;;;;0.00;0.00;;;;;;;;;;1738788;28;20199;-71
2022/10/27 01:21:27;;;;;;;0.00;0.00;;;;;;;;;;1718433;28;20296;-70
2022/10/27 01:22:21;;;;;;;0.00;0.00;;;;;;;;;;1717079;28;20205;-70
2022/10/27 01:23:20;;;;;;;0.00;0.00;;;;;;;;;;1721241;28;20313;-70
2022/10/27 01:24:25;;;;;;;0.00;0.00;;;;;;;;;;1725516;28;20192;-71
2022/10/27 01:25:23;;;;;;;0.00;0.00;;;;;;;;;;1725879;28;20311;-70
2022/10/27 01:26:22;;;;;;;0.00;0.00;;;;;;;;;;1725482;28;20646;-71
2022/10/27 01:27:28;;;;;;;0.00;0.00;;;;;;;;;;1740927;28;20215;-72
2022/10/27 01:28:39;;;;;;;0.00;0.00;;;;;;;;;;1718981;28;20639;-72
2022/10/27 01:29:52;;;;;;;0.00;0.00;;;;;;;;;;1735553;28;20239;-72
2022/10/27 01:30:53;;;;;;;0.00;0.00;;;;;;;;;;1735732;28;20199;-72
2022/10/27 01:31:48;;;;;;;0.00;0.00;;;;;;;;;;1740057;28;20585;-72
2022/10/27 01:32:44;;;;;;;0.00;0.00;;;;;;;;;;1739936;28;20202;-71
2022/10/27 01:33:38;;;;;;;0.00;0.00;;;;;;;;;;1744694;28;20507;-72
2022/10/27 01:34:31;;;;;;;0.00;0.00;;;;;;;;;;1740028;28;20207;-72
2022/10/27 01:35:26;;;;;;;0.00;0.00;;;;;;;;;;1739680;28;20217;-72
2022/10/27 01:36:23;;;;;;;0.00;0.00;;;;;;;;;;1743751;28;20220;-71
2022/10/27 01:37:17;;;;;;;0.00;0.00;;;;;;;;;;1746885;28;20508;-70
2022/10/27 01:38:11;;;;;;;0.00;0.00;;;;;;;;;;1747039;28;20190;-70
2022/10/27 01:39:05;;;;;;;0.00;0.00;;;;;;;;;;1746976;28;20254;-70
2022/10/27 01:40:00;;;;;;;0.00;0.00;;;;;;;;;;1747112;28;20293;-70
2022/10/27 01:40:55;;;;;;;0.00;0.00;;;;;;;;;;1746830;28;20293;-70
2022/10/27 01:41:49;;;;;;;0.00;0.00;;;;;;;;;;1746820;28;20229;-70
2022/10/27 01:42:44;;;;;;;0.00;0.00;;;;;;;;;;1743052;28;20662;-72
2022/10/27 01:43:37;;;;;;;0.00;0.00;;;;;;;;;;1746063;28;20544;-70
2022/10/27 01:44:30;;;;;;;0.03;0.03;;;;;;;;;;1743847;28;20238;-70
2022/10/27 01:45:26;;;;;;;0.00;0.00;;;;;;;;;;1740663;28;20218;-71
2022/10/27 01:46:19;;;;;;;0.00;0.00;;;;;;;;;;1740072;28;20195;-71
2022/10/27 01:47:12;;;;;;;0.00;0.00;;;;;;;;;;1740505;28;20203;-71
2022/10/27 01:48:04;;;;;;;0.00;0.00;;;;;;;;;;1739905;28;20265;-72
2022/10/27 01:48:56;;;;;;;0.00;0.00;;;;;;;;;;1740474;28;20218;-71
2022/10/27 01:49:47;;;;;;;0.00;0.00;;;;;;;;;;1738740;28;20652;-72
2022/10/27 01:50:40;;;;;;;0.00;0.00;;;;;;;;;;1740325;28;20231;-71
2022/10/27 01:51:32;;;;;;;0.00;0.00;;;;;;;;;;1742291;28;20730;-71
2022/10/27 01:52:38;;;;;;;0.00;0.00;;;;;;;;;;1746386;28;20202;-71
2022/10/27 01:53:30;;;;;;;0.00;0.00;;;;;;;;;;1747001;28;20258;-71
2022/10/27 01:54:22;;;;;;;0.00;0.00;;;;;;;;;;1742833;28;20207;-71
2022/10/27 01:55:16;;;;;;;0.00;0.00;;;;;;;;;;1740473;28;20297;-71
2022/10/27 01:56:16;;;;;;;0.00;0.00;;;;;;;;;;1739779;28;20253;-71
2022/10/27 01:57:11;;;;;;;0.00;0.00;;;;;;;;;;1740004;28;20237;-72
2022/10/27 01:58:08;;;;;;;0.00;0.00;;;;;;;;;;1741161;28;20191;-72
2022/10/27 01:59:07;;;;;;;0.00;0.00;;;;;;;;;;1746176;28;20262;-71
2022/10/27 02:00:04;;;;;;;0.00;0.00;;;;;;;;;;1747022;28;20281;-71
2022/10/27 02:01:00;;;;;;;0.00;0.00;;;;;;;;;;1745303;28;20606;-70
2022/10/27 02:01:58;;;;;;;0.00;0.00;;;;;;;;;;1739414;28;20210;-70
2022/10/27 02:02:53;;;;;;;0.00;0.00;;;;;;;;;;1739699;28;20199;-70
2022/10/27 02:03:49;;;;;;;0.00;0.00;;;;;;;;;;1740301;28;20752;-70
2022/10/27 02:04:43;;;;;;;0.00;0.00;;;;;;;;;;1739881;28;20195;-70
2022/10/27 02:05:36;;;;;;;0.00;0.00;;;;;;;;;;1740010;28;20257;-71
2022/10/27 02:06:31;;;;;;;0.00;0.00;;;;;;;;;;1743157;28;20505;-71
2022/10/27 02:07:27;;;;;;;0.00;0.00;;;;;;;;;;1746871;28;20209;-71
2022/10/27 02:08:21;;;;;;;0.00;0.00;;;;;;;;;;1746747;28;20824;-72
2022/10/27 02:09:15;;;;;;;0.00;0.00;;;;;;;;;;1744701;28;20241;-71
2022/10/27 02:10:10;;;;;;;0.00;0.00;;;;;;;;;;1740301;28;20251;-71
2022/10/27 02:11:02;;;;;;;0.00;0.00;;;;;;;;;;1739931;28;20302;-71
2022/10/27 02:11:56;;;;;;;0.00;0.00;;;;;;;;;;1739907;28;20691;-70
2022/10/27 02:12:47;;;;;;;0.00;0.00;;;;;;;;;;1740116;28;20509;-71
2022/10/27 02:13:40;;;;;;;0.00;0.00;;;;;;;;;;1739840;28;20222;-70
2022/10/27 02:14:34;;;;;;;0.00;0.00;;;;;;;;;;1744836;28;20289;-70
2022/10/27 02:15:28;;;;;;;0.00;0.00;;;;;;;;;;1747310;28;20301;-70
2022/10/27 02:16:21;;;;;;;0.00;0.00;;;;;;;;;;1745490;28;20241;-70
2022/10/27 02:17:16;;;;;;;0.00;0.00;;;;;;;;;;1740129;28;20210;-70
2022/10/27 02:18:10;;;;;;;0.00;0.00;;;;;;;;;;1739090;28;20238;-71
2022/10/27 02:19:03;;;;;;;0.00;0.00;;;;;;;;;;1739638;28;20628;-70
2022/10/27 02:19:56;;;;;;;0.00;0.00;;;;;;;;;;1739907;28;20305;-70
2022/10/27 02:20:50;;;;;;;0.00;0.00;;;;;;;;;;1739793;28;20502;-70
2022/10/27 02:21:44;;;;;;;0.00;0.00;;;;;;;;;;1739995;28;20206;-70
2022/10/27 02:22:37;;;;;;;0.00;0.00;;;;;;;;;;1740812;28;20575;-70
2022/10/27 02:23:28;;;;;;;0.00;0.00;;;;;;;;;;1747114;28;20641;-70
2022/10/27 02:24:20;;;;;;;0.00;0.00;;;;;;;;;;1746538;28;20202;-71
2022/10/27 02:25:12;;;;;;;0.00;0.00;;;;;;;;;;1747142;28;20242;-70
2022/10/27 02:26:06;;;;;;;0.00;0.00;;;;;;;;;;1742598;28;20238;-70
2022/10/27 02:26:59;;;;;;;0.00;0.00;;;;;;;;;;1739839;28;20241;-70
2022/10/27 02:27:52;;;;;;;0.00;0.00;;;;;;;;;;1740324;28;20202;-70
2022/10/27 02:28:45;;;;;;;0.00;0.00;;;;;;;;;;1735635;28;20223;-70
2022/10/27 02:29:39;;;;;;;0.00;0.00;;;;;;;;;;1743431;28;20221;-71
2022/10/27 02:30:31;;;;;;;0.00;0.00;;;;;;;;;;1740276;28;20230;-70
2022/10/27 02:31:25;;;;;;;0.00;0.00;;;;;;;;;;1740657;28;20207;-72
2022/10/27 02:32:19;;;;;;;0.00;0.00;;;;;;;;;;1746688;28;20225;-72
2022/10/27 02:33:11;;;;;;;0.00;0.00;;;;;;;;;;1739008;28;20199;-72
2022/10/27 02:34:03;;;;;;;0.00;0.00;;;;;;;;;;1739899;28;20477;-71
2022/10/27 02:34:55;;;;;;;0.00;0.00;;;;;;;;;;1739651;28;20214;-71
2022/10/27 02:35:46;;;;;;;0.00;0.00;;;;;;;;;;1739947;28;20294;-71
2022/10/27 02:36:38;;;;;;;0.00;0.00;;;;;;;;;;1739946;28;20215;-71
2022/10/27 02:37:31;;;;;;;0.00;0.00;;;;;;;;;;1739714;28;20203;-71
2022/10/27 02:38:23;;;;;;;0.03;0.03;;;;;;;;;;1739937;28;20238;-71
2022/10/27 02:39:14;;;;;;;0.00;0.00;;;;;;;;;;1742192;28;20203;-71
2022/10/27 02:40:07;;;;;;;0.00;0.00;;;;;;;;;;1747261;28;20194;-71
2022/10/27 02:40:58;;;;;;;0.00;0.00;;;;;;;;;;1745202;28;20238;-70
2022/10/27 02:41:50;;;;;;;0.00;0.00;;;;;;;;;;1739748;28;20470;-70
2022/10/27 02:42:41;;;;;;;0.00;0.00;;;;;;;;;;1743844;28;20349;-71
2022/10/27 02:43:33;;;;;;;0.00;0.00;;;;;;;;;;1741240;28;20241;-71
2022/10/27 02:44:24;;;;;;;0.00;0.00;;;;;;;;;;1744300;28;20211;-70
2022/10/27 02:45:16;;;;;;;0.00;0.00;;;;;;;;;;1747085;28;20206;-71
2022/10/27 02:46:07;;;;;;;0.00;0.00;;;;;;;;;;1746275;28;20585;-70
2022/10/27 02:46:59;;;;;;;0.00;0.00;;;;;;;;;;1746998;28;20206;-70
2022/10/27 02:47:52;;;;;;;0.00;0.00;;;;;;;;;;1747716;28;20240;-70
2022/10/27 02:48:44;;;;;;;0.00;0.00;;;;;;;;;;1748411;28;20560;-70
2022/10/27 02:49:35;;;;;;;0.00;0.00;;;;;;;;;;1742088;28;20570;-70
2022/10/27 02:50:27;;;;;;;0.00;0.00;;;;;;;;;;1741498;28;20625;-70
2022/10/27 02:51:18;;;;;;;0.00;0.00;;;;;;;;;;1738585;28;20691;-70
2022/10/27 02:52:10;;;;;;;0.00;0.00;;;;;;;;;;1740886;28;20199;-70
2022/10/27 02:53:01;;;;;;;0.10;0.10;;;;;;;;;;1740707;28;20258;-70
2022/10/27 02:53:53;;;;;;;0.00;0.00;;;;;;;;;;1741113;28;20226;-70
2022/10/27 02:54:47;;;;;;;0.00;0.00;;;;;;;;;;1748028;28;20206;-70
2022/10/27 02:55:39;;;;;;;0.00;0.00;;;;;;;;;;1748100;28;20452;-70
2022/10/27 02:56:30;;;;;;;0.00;0.00;;;;;;;;;;1747950;28;20238;-71
2022/10/27 02:57:22;;;;;;;0.00;0.00;;;;;;;;;;1747925;28;20221;-71
2022/10/27 02:58:13;;;;;;;0.00;0.00;;;;;;;;;;1747973;28;20245;-71
2022/10/27 02:59:05;;;;;;;0.00;0.00;;;;;;;;;;1747901;28;20750;-71
2022/10/27 02:59:56;;;;;;;0.00;0.00;;;;;;;;;;1747913;28;20675;-71
2022/10/27 03:00:48;;;;;;;0.00;0.00;;;;;;;;;;1748187;28;20730;-71
2022/10/27 03:01:39;;;;;;;0.00;0.00;;;;;;;;;;1747424;28;20743;-70
2022/10/27 03:02:31;;;;;;;0.00;0.00;;;;;;;;;;1747394;28;20202;-70
2022/10/27 03:03:24;;;;;;;0.00;0.00;;;;;;;;;;1748105;28;20256;-70
2022/10/27 03:04:16;;;;;;;0.00;0.00;;;;;;;;;;1747510;28;20199;-70
2022/10/27 03:05:07;;;;;;;0.00;0.00;;;;;;;;;;1748414;28;20226;-70
2022/10/27 03:05:59;;;;;;;0.00;0.00;;;;;;;;;;1747531;28;20233;-70
2022/10/27 03:06:50;;;;;;;0.00;0.00;;;;;;;;;;1747699;28;20645;-70
2022/10/27 03:07:44;;;;;;;0.00;0.00;;;;;;;;;;1747799;28;20229;-70
2022/10/27 03:08:35;;;;;;;0.00;0.00;;;;;;;;;;1747842;28;20748;-70
2022/10/27 03:09:27;;;;;;;0.00;0.00;;;;;;;;;;1746142;28;20244;-70
2022/10/27 03:10:18;;;;;;;0.00;0.00;;;;;;;;;;1748226;28;20301;-70
2022/10/27 03:11:10;;;;;;;0.00;0.00;;;;;;;;;;1747800;28;20206;-71
2022/10/27 03:12:01;;;;;;;0.00;0.00;;;;;;;;;;1747562;28;20245;-71
2022/10/27 03:12:53;;;;;;;0.00;0.00;;;;;;;;;;1747571;28;20236;-71
2022/10/27 03:13:44;;;;;;;0.00;0.00;;;;;;;;;;1748051;28;20344;-71
2022/10/27 03:14:37;;;;;;;0.00;0.00;;;;;;;;;;1747477;28;20612;-71
2022/10/27 03:15:28;;;;;;;0.00;0.00;;;;;;;;;;1748390;28;20651;-71
2022/10/27 03:16:20;;;;;;;0.00;0.00;;;;;;;;;;1747522;28;20301;-70
2022/10/27 03:17:11;;;;;;;0.00;0.00;;;;;;;;;;1747998;28;20241;-70
2022/10/27 03:18:03;;;;;;;0.00;0.00;;;;;;;;;;1747300;28;20221;-70
2022/10/27 03:18:55;;;;;;;0.00;0.00;;;;;;;;;;1747607;28;20297;-70
2022/10/27 03:19:47;;;;;;;0.00;0.00;;;;;;;;;;1747855;28;20567;-70
2022/10/27 03:20:39;;;;;;;0.00;0.00;;;;;;;;;;1747909;28;20719;-70
2022/10/27 03:21:31;;;;;;;0.00;0.00;;;;;;;;;;1747602;28;20230;-71
2022/10/27 03:22:22;;;;;;;0.00;0.00;;;;;;;;;;1747378;28;20301;-71
2022/10/27 03:23:14;;;;;;;0.00;0.00;;;;;;;;;;1747310;28;20246;-71
2022/10/27 03:24:05;;;;;;;0.00;0.00;;;;;;;;;;1747747;28;20233;-71
2022/10/27 03:24:57;;;;;;;0.00;0.00;;;;;;;;;;1747731;28;20221;-71
2022/10/27 03:25:48;;;;;;;0.00;0.00;;;;;;;;;;1748131;28;20699;-70
2022/10/27 03:26:40;;;;;;;0.00;0.00;;;;;;;;;;1748045;28;20201;-70
2022/10/27 03:27:31;;;;;;;0.00;0.00;;;;;;;;;;1745011;28;20210;-70
2022/10/27 03:28:23;;;;;;;0.00;0.00;;;;;;;;;;1740755;28;20532;-70
2022/10/27 03:29:15;;;;;;;0.00;0.00;;;;;;;;;;1743730;28;20604;-70
2022/10/27 03:30:06;;;;;;;0.00;0.00;;;;;;;;;;1742498;28;20199;-70
2022/10/27 03:30:58;;;;;;;0.00;0.00;;;;;;;;;;1744012;28;20194;-70
2022/10/27 03:31:49;;;;;;;0.00;0.00;;;;;;;;;;1744205;28;20301;-70
2022/10/27 03:32:45;;;;;;;0.00;0.00;;;;;;;;;;1740746;28;20290;-70
2022/10/27 03:33:36;;;;;;;0.00;0.00;;;;;;;;;;1740642;28;20504;-70
2022/10/27 03:34:29;;;;;;;0.00;0.00;;;;;;;;;;1740640;28;20292;-70
2022/10/27 03:35:21;;;;;;;0.00;0.00;;;;;;;;;;1741241;28;20242;-70
2022/10/27 03:36:13;;;;;;;0.00;0.00;;;;;;;;;;1740733;28;20206;-71
2022/10/27 03:37:04;;;;;;;0.00;0.00;;;;;;;;;;1741106;28;20198;-71
2022/10/27 03:37:56;;;;;;;0.00;0.00;;;;;;;;;;1740678;28;20613;-71
2022/10/27 03:38:48;;;;;;;0.00;0.00;;;;;;;;;;1741116;28;20250;-71
2022/10/27 03:39:40;;;;;;;0.00;0.00;;;;;;;;;;1740068;28;20619;-71
2022/10/27 03:40:31;;;;;;;0.00;0.00;;;;;;;;;;1741399;28;20763;-71
2022/10/27 03:41:23;;;;;;;0.00;0.00;;;;;;;;;;1740481;28;20210;-71
2022/10/27 03:42:14;;;;;;;0.00;0.00;;;;;;;;;;1740571;28;20675;-71
2022/10/27 03:43:06;;;;;;;0.00;0.00;;;;;;;;;;1740630;28;20207;-71
2022/10/27 03:43:57;;;;;;;0.00;0.00;;;;;;;;;;1740299;28;20289;-71
2022/10/27 03:44:49;;;;;;;0.00;0.00;;;;;;;;;;1740501;28;20227;-71
2022/10/27 03:45:40;;;;;;;0.00;0.00;;;;;;;;;;1740800;28;20306;-71
2022/10/27 03:46:32;;;;;;;0.00;0.00;;;;;;;;;;1740833;28;20633;-71
2022/10/27 03:47:24;;;;;;;0.00;0.00;;;;;;;;;;1740703;28;20569;-71
2022/10/27 03:48:16;;;;;;;0.00;0.00;;;;;;;;;;1747399;28;20236;-71
2022/10/27 03:49:07;;;;;;;0.00;0.00;;;;;;;;;;1747543;28;20296;-71
2022/10/27 03:50:03;;;;;;;0.00;0.00;;;;;;;;;;1747452;28;20226;-71
2022/10/27 03:50:54;;;;;;;0.00;0.00;;;;;;;;;;1744889;28;20663;-71
2022/10/27 03:51:46;;;;;;;0.00;0.00;;;;;;;;;;1740718;28;20289;-70
2022/10/27 03:52:37;;;;;;;0.00;0.00;;;;;;;;;;1740573;28;20309;-70
2022/10/27 03:53:29;;;;;;;0.00;0.00;;;;;;;;;;1740970;28;20290;-70
2022/10/27 03:54:20;;;;;;;0.00;0.00;;;;;;;;;;1740316;28;20326;-70
2022/10/27 03:55:12;;;;;;;0.00;0.00;;;;;;;;;;1741186;28;20203;-70
2022/10/27 03:56:04;;;;;;;0.00;0.00;;;;;;;;;;1740175;28;20231;-70
2022/10/27 03:56:56;;;;;;;0.00;0.00;;;;;;;;;;1740851;28;20257;-70
2022/10/27 03:57:47;;;;;;;0.00;0.00;;;;;;;;;;1740646;28;20594;-70
2022/10/27 03:58:39;;;;;;;0.00;0.00;;;;;;;;;;1739803;28;20658;-70
2022/10/27 03:59:30;;;;;;;0.00;0.00;;;;;;;;;;1740369;28;20238;-70
2022/10/27 04:00:22;;;;;;;0.00;0.00;;;;;;;;;;1741068;28;20221;-70
2022/10/27 04:01:13;;;;;;;0.00;0.00;;;;;;;;;;1740091;28;20701;-71
2022/10/27 04:02:05;;;;;;;0.00;0.00;;;;;;;;;;1740263;28;20291;-71
2022/10/27 04:02:56;;;;;;;0.00;0.00;;;;;;;;;;1740501;28;20294;-71
2022/10/27 04:03:48;;;;;;;0.00;0.00;;;;;;;;;;1740641;28;20222;-71
2022/10/27 04:04:39;;;;;;;0.00;0.00;;;;;;;;;;1740435;28;20732;-71
2022/10/27 04:05:33;;;;;;;0.00;0.00;;;;;;;;;;1741174;28;20210;-71
2022/10/27 04:06:24;;;;;;;0.00;0.00;;;;;;;;;;1739706;28;20257;-70
2022/10/27 04:07:16;;;;;;;0.00;0.00;;;;;;;;;;1740853;28;20534;-70
2022/10/27 04:08:07;;;;;;;0.00;0.00;;;;;;;;;;1739318;28;20277;-70
2022/10/27 04:08:59;;;;;;;0.00;0.00;;;;;;;;;;1740693;28;20206;-71
2022/10/27 04:09:50;;;;;;;0.00;0.00;;;;;;;;;;1737343;28;20639;-70
2022/10/27 04:10:42;;;;;;;0.00;0.00;;;;;;;;;;1734419;28;20211;-70
2022/10/27 04:11:33;;;;;;;0.00;0.00;;;;;;;;;;1734461;28;20236;-70
2022/10/27 04:12:25;;;;;;;0.00;0.00;;;;;;;;;;1739701;28;20203;-70
2022/10/27 04:13:16;;;;;;;0.00;0.00;;;;;;;;;;1737119;28;20265;-70
2022/10/27 04:14:08;;;;;;;0.00;0.00;;;;;;;;;;1740435;28;20199;-70
2022/10/27 04:15:00;;;;;;;0.00;0.00;;;;;;;;;;1740693;28;20309;-70
2022/10/27 04:15:52;;;;;;;0.00;0.00;;;;;;;;;;1740802;28;20290;-70
2022/10/27 04:16:43;;;;;;;0.00;0.00;;;;;;;;;;1736872;28;20287;-70
2022/10/27 04:17:35;;;;;;;0.00;0.00;;;;;;;;;;1736337;28;20294;-70
2022/10/27 04:18:26;;;;;;;0.00;0.00;;;;;;;;;;1740516;28;20676;-70
2022/10/27 04:19:19;;;;;;;0.00;0.00;;;;;;;;;;1740493;28;20229;-70
2022/10/27 04:20:10;;;;;;;0.00;0.00;;;;;;;;;;1740896;28;20235;-70
2022/10/27 04:21:04;;;;;;;0.00;0.00;;;;;;;;;;1740185;28;20199;-70
2022/10/27 04:21:55;;;;;;;0.00;0.00;;;;;;;;;;1740288;28;20585;-70
2022/10/27 04:22:47;;;;;;;0.00;0.00;;;;;;;;;;1740041;28;20268;-70
2022/10/27 04:23:38;;;;;;;0.00;0.00;;;;;;;;;;1740664;28;20297;-70
2022/10/27 04:24:30;;;;;;;0.00;0.00;;;;;;;;;;1740458;28;20709;-70
2022/10/27 04:25:22;;;;;;;0.00;0.00;;;;;;;;;;1740191;28;20233;-70
2022/10/27 04:26:14;;;;;;;0.00;0.00;;;;;;;;;;1740394;28;20226;-71
2022/10/27 04:27:05;;;;;;;0.00;0.00;;;;;;;;;;1740720;28;20230;-71
2022/10/27 04:28:04;;;;;;;0.00;0.00;;;;;;;;;;1740196;28;20536;-71
2022/10/27 04:28:55;;;;;;;0.00;0.00;;;;;;;;;;1737125;28;20251;-71
2022/10/27 04:29:47;;;;;;;0.00;0.00;;;;;;;;;;1740197;28;20250;-71
2022/10/27 04:30:38;;;;;;;0.00;0.00;;;;;;;;;;1740879;28;20241;-71
2022/10/27 04:31:30;;;;;;;0.00;0.00;;;;;;;;;;1740325;28;20210;-71
2022/10/27 04:32:21;;;;;;;0.00;0.00;;;;;;;;;;1740189;28;20235;-70
2022/10/27 04:33:13;;;;;;;0.00;0.00;;;;;;;;;;1740231;28;20226;-70
2022/10/27 04:34:04;;;;;;;0.00;0.00;;;;;;;;;;1739970;28;20226;-70
2022/10/27 04:34:56;;;;;;;0.00;0.00;;;;;;;;;;1747381;28;20628;-70
2022/10/27 04:35:47;;;;;;;0.00;0.00;;;;;;;;;;1747422;28;20226;-70
2022/10/27 04:36:41;;;;;;;0.00;0.00;;;;;;;;;;1747359;28;20243;-70
2022/10/27 04:37:33;;;;;;;0.00;0.00;;;;;;;;;;1747169;28;20265;-70
2022/10/27 04:38:25;;;;;;;0.00;0.00;;;;;;;;;;1747334;28;20297;-70
2022/10/27 04:39:16;;;;;;;0.00;0.00;;;;;;;;;;1747062;28;20241;-70
2022/10/27 04:40:08;;;;;;;0.00;0.00;;;;;;;;;;1747621;28;20206;-70
2022/10/27 04:41:00;;;;;;;0.00;0.00;;;;;;;;;;1743622;28;20250;-71
2022/10/27 04:41:52;;;;;;;0.00;0.00;;;;;;;;;;1740045;28;20663;-71
2022/10/27 04:42:46;;;;;;;0.00;0.00;;;;;;;;;;1740313;28;20301;-71
2022/10/27 04:43:38;;;;;;;0.00;0.00;;;;;;;;;;1740444;28;20568;-71
2022/10/27 04:44:29;;;;;;;0.00;0.00;;;;;;;;;;1739941;28;20652;-71
2022/10/27 04:45:21;;;;;;;0.00;0.00;;;;;;;;;;1740968;28;20217;-71
2022/10/27 04:46:12;;;;;;;0.00;0.00;;;;;;;;;;1740187;28;20235;-71
2022/10/27 04:47:04;;;;;;;0.00;0.00;;;;;;;;;;1740667;28;20195;-71
2022/10/27 04:47:55;;;;;;;0.00;0.00;;;;;;;;;;1740025;28;20292;-71
2022/10/27 04:48:47;;;;;;;0.00;0.00;;;;;;;;;;1740705;28;20237;-71
2022/10/27 04:49:39;;;;;;;0.00;0.00;;;;;;;;;;1739882;28;20597;-71
2022/10/27 04:50:31;;;;;;;0.00;0.00;;;;;;;;;;1740630;28;20199;-71
2022/10/27 04:51:22;;;;;;;0.00;0.00;;;;;;;;;;1740082;28;20286;-71
2022/10/27 04:52:15;;;;;;;0.00;0.00;;;;;;;;;;1739904;28;20195;-71
2022/10/27 04:53:06;;;;;;;0.00;0.00;;;;;;;;;;1740324;28;20226;-71
2022/10/27 04:53:58;;;;;;;0.00;0.00;;;;;;;;;;1740453;28;20214;-71
2022/10/27 04:54:49;;;;;;;0.00;0.00;;;;;;;;;;1739774;28;20290;-71
2022/10/27 04:55:41;;;;;;;0.00;0.00;;;;;;;;;;1740635;28;20207;-71
2022/10/27 04:56:32;;;;;;;0.00;0.00;;;;;;;;;;1740170;28;20629;-71
2022/10/27 04:57:24;;;;;;;0.00;0.00;;;;;;;;;;1741613;28;20512;-71
2022/10/27 04:58:15;;;;;;;0.00;0.00;;;;;;;;;;1747217;28;20297;-71
2022/10/27 04:59:07;;;;;;;0.00;0.00;;;;;;;;;;1746749;28;20572;-71
2022/10/27 05:00:00;;;;;;;0.00;0.00;;;;;;;;;;1746985;28;20202;-71
2022/10/27 05:00:52;;;;;;;0.00;0.00;;;;;;;;;;1747264;28;20574;-71
2022/10/27 05:01:43;;;;;;;0.00;0.00;;;;;;;;;;1746959;28;20607;-70
2022/10/27 05:02:35;;;;;;;0.00;0.00;;;;;;;;;;1746730;28;20202;-70
2022/10/27 05:03:26;;;;;;;0.00;0.00;;;;;;;;;;1747339;28;20262;-71
2022/10/27 05:04:18;;;;;;;0.00;0.00;;;;;;;;;;1746840;28;20226;-70
2022/10/27 05:05:09;;;;;;;0.00;0.00;;;;;;;;;;1746263;28;20580;-70
2022/10/27 05:06:01;;;;;;;0.00;0.00;;;;;;;;;;1743368;28;20194;-71
2022/10/27 05:06:52;;;;;;;0.00;0.00;;;;;;;;;;1743521;28;20198;-71
2022/10/27 05:07:51;;;;;;;0.00;0.00;;;;;;;;;;1740077;28;20280;-71
2022/10/27 05:08:42;;;;;;;0.00;0.00;;;;;;;;;;1740200;28;20206;-71
2022/10/27 05:09:34;;;;;;;0.00;0.00;;;;;;;;;;1740187;28;20288;-71
2022/10/27 05:10:25;;;;;;;0.00;0.00;;;;;;;;;;1740474;28;20672;-71
2022/10/27 05:11:17;;;;;;;0.00;0.00;;;;;;;;;;1739822;28;20325;-71
2022/10/27 05:12:08;;;;;;;0.00;0.00;;;;;;;;;;1739961;28;20632;-71
2022/10/27 05:13:01;;;;;;;0.00;0.00;;;;;;;;;;1746327;28;20209;-71
2022/10/27 05:13:52;;;;;;;0.00;0.00;;;;;;;;;;1747290;28;20245;-71
2022/10/27 05:14:44;;;;;;;0.00;0.00;;;;;;;;;;1746565;28;20253;-71
2022/10/27 05:15:35;;;;;;;0.00;0.00;;;;;;;;;;1747428;28;20202;-71
2022/10/27 05:16:27;;;;;;;0.00;0.00;;;;;;;;;;1739467;28;20203;-70
2022/10/27 05:17:18;;;;;;;0.00;0.00;;;;;;;;;;1740253;28;20234;-70